Time;durP1;ratioP1;P1;durP2;ratioP2;P2;SDS_P1;SDS_P2;PMS_P1;PMS_P2;Temp;Humidity;BMP_temperature;BMP_pressure;BME280_temperature;BME280_humidity;BME280_pressure;Samples;Min_cycle;Max_cycle;Signal;HPM_P1;HPM_P2
2021/07/21 00:00:14;;;;;;;3.47;2.20;;;19.20;99.90;;;;;;5056026;28;20175;-91
2021/07/21 00:02:40;;;;;;;4.07;2.60;;;19.10;99.90;;;;;;5055572;28;20183;-92
2021/07/21 00:05:17;;;;;;;4.82;2.45;;;19.10;99.90;;;;;;5055742;28;20182;-93
2021/07/21 00:07:43;;;;;;;7.13;2.53;;;19.00;99.90;;;;;;5074109;28;20171;-93
2021/07/21 00:10:11;;;;;;;5.35;2.78;;;19.00;99.90;;;;;;5077988;28;20642;-93
2021/07/21 00:15:29;;;;;;;3.45;2.20;;;19.00;99.90;;;;;;5028556;28;20182;-92
2021/07/21 00:18:01;;;;;;;5.40;2.25;;;18.90;99.90;;;;;;5039270;28;20190;-92
2021/07/21 00:20:29;;;;;;;5.45;2.40;;;18.90;99.90;;;;;;5056396;28;20289;-93
2021/07/21 00:22:54;;;;;;;5.28;2.25;;;18.90;99.90;;;;;;5055427;28;20197;-92
2021/07/21 00:25:20;;;;;;;6.15;2.25;;;18.90;99.90;;;;;;5039058;28;20179;-92
2021/07/21 00:27:46;;;;;;;6.28;2.10;;;18.90;99.90;;;;;;5073697;28;20266;-93
2021/07/21 00:30:18;;;;;;;9.13;2.30;;;18.80;99.90;;;;;;5073400;28;20167;-92
2021/07/21 00:32:43;;;;;;;6.97;2.20;;;18.80;99.90;;;;;;5055598;28;20175;-93
2021/07/21 00:35:12;;;;;;;4.03;2.30;;;18.80;99.90;;;;;;5055657;28;20186;-93
2021/07/21 00:37:38;;;;;;;2.80;1.92;;;18.70;99.90;;;;;;5055414;28;20186;-93
2021/07/21 00:40:05;;;;;;;4.25;2.38;;;18.70;99.90;;;;;;5055449;28;20176;-92
2021/07/21 00:42:31;;;;;;;3.53;2.00;;;18.70;99.90;;;;;;5073174;28;20182;-92
2021/07/21 00:44:57;;;;;;;3.85;2.22;;;18.70;99.90;;;;;;5055295;28;20179;-92
2021/07/21 00:47:22;;;;;;;5.43;1.92;;;18.60;99.90;;;;;;5055623;28;20620;-92
2021/07/21 00:49:48;;;;;;;3.55;2.00;;;18.60;99.90;;;;;;5055325;28;20174;-92
2021/07/21 00:52:15;;;;;;;4.63;2.45;;;18.50;99.90;;;;;;5054849;28;20234;-92
2021/07/21 00:54:41;;;;;;;8.13;2.30;;;18.50;99.90;;;;;;5055893;28;20210;-92
2021/07/21 00:57:07;;;;;;;3.95;2.00;;;18.50;99.90;;;;;;5022049;28;20175;-91
2021/07/21 00:59:35;;;;;;;4.55;2.22;;;18.40;99.90;;;;;;5055259;28;20179;-93
2021/07/21 01:02:02;;;;;;;5.72;2.33;;;18.40;99.90;;;;;;5072574;28;20203;-91
2021/07/21 01:04:29;;;;;;;7.30;2.15;;;18.40;99.90;;;;;;5055776;28;20199;-91
2021/07/21 01:06:55;;;;;;;5.63;2.30;;;18.40;99.90;;;;;;5055037;28;20596;-90
2021/07/21 01:09:21;;;;;;;3.78;2.20;;;18.40;99.90;;;;;;5055439;28;20265;-91
2021/07/21 01:12:00;;;;;;;3.03;1.98;;;18.40;99.90;;;;;;5073354;28;20183;-92
2021/07/21 01:14:42;;;;;;;3.10;2.33;;;18.40;99.90;;;;;;5055440;28;20709;-92
2021/07/21 01:17:18;;;;;;;3.22;2.40;;;18.40;99.90;;;;;;5073151;28;20163;-91
2021/07/21 01:20:23;;;;;;;7.18;2.63;;;18.40;99.90;;;;;;5073253;28;20195;-92
2021/07/21 01:23:32;;;;;;;2.10;1.90;;;18.40;99.90;;;;;;5055690;28;20186;-91
2021/07/21 01:26:07;;;;;;;2.65;2.03;;;18.50;99.90;;;;;;4975346;28;20749;-91
2021/07/21 01:28:33;;;;;;;3.42;2.40;;;18.50;99.90;;;;;;4991895;28;20320;-92
2021/07/21 01:31:01;;;;;;;6.13;2.10;;;18.50;99.90;;;;;;5034918;28;20674;-93
2021/07/21 01:33:29;;;;;;;6.28;2.10;;;18.60;99.90;;;;;;5055653;28;20179;-93
2021/07/21 01:35:55;;;;;;;2.83;2.17;;;18.60;99.90;;;;;;5056135;28;20167;-92
2021/07/21 01:38:29;;;;;;;4.93;2.08;;;18.60;99.90;;;;;;5056121;28;20176;-94
2021/07/21 01:41:08;;;;;;;6.15;2.15;;;18.60;99.90;;;;;;5073162;28;20203;-93
2021/07/21 01:43:35;;;;;;;4.28;2.13;;;18.60;99.90;;;;;;5055254;28;20190;-94
2021/07/21 01:46:03;;;;;;;6.07;2.30;;;18.60;99.90;;;;;;5055043;28;20689;-94
2021/07/21 01:48:32;;;;;;;4.03;1.83;;;18.70;99.90;;;;;;5074510;28;20178;-95
2021/07/21 01:50:59;;;;;;;9.43;2.33;;;18.70;99.90;;;;;;5059162;28;20530;-92
2021/07/21 01:53:28;;;;;;;5.90;1.90;;;18.50;99.90;;;;;;5042134;28;20258;-92
2021/07/21 01:55:54;;;;;;;7.57;2.20;;;18.40;99.90;;;;;;5077006;28;20228;-91
2021/07/21 01:58:20;;;;;;;2.83;1.80;;;18.30;99.90;;;;;;5058895;28;20240;-93
2021/07/21 02:00:50;;;;;;;7.93;1.88;;;18.20;99.90;;;;;;5077401;28;20242;-92
2021/07/21 02:03:18;;;;;;;2.80;2.20;;;18.20;99.90;;;;;;5058485;28;20183;-92
2021/07/21 02:05:45;;;;;;;6.75;2.50;;;18.20;99.90;;;;;;5076302;28;20193;-92
2021/07/21 02:08:11;;;;;;;4.07;2.13;;;18.10;99.90;;;;;;5058029;28;20222;-92
2021/07/21 02:10:38;;;;;;;2.83;2.20;;;18.10;99.90;;;;;;5041515;28;20187;-92
2021/07/21 02:13:10;;;;;;;5.78;2.15;;;18.00;99.90;;;;;;5024884;28;20236;-88
2021/07/21 02:15:36;;;;;;;5.35;2.25;;;18.10;99.90;;;;;;5076237;28;20159;-92
2021/07/21 02:18:02;;;;;;;3.42;2.47;;;18.00;99.90;;;;;;5076015;28;20172;-92
2021/07/21 02:20:29;;;;;;;5.03;2.22;;;18.00;99.90;;;;;;5041024;28;20217;-92
2021/07/21 02:22:55;;;;;;;4.80;3.05;;;18.00;99.90;;;;;;5041612;28;20663;-92
2021/07/21 02:25:22;;;;;;;5.47;3.90;;;18.00;99.90;;;;;;5057748;28;20187;-92
2021/07/21 02:27:48;;;;;;;3.08;2.40;;;17.90;99.90;;;;;;5057900;28;20240;-92
2021/07/21 02:30:14;;;;;;;3.30;2.75;;;18.00;99.90;;;;;;5075073;28;20179;-92
2021/07/21 02:32:53;;;;;;;5.88;2.75;;;17.90;99.90;;;;;;5057830;28;20248;-91
2021/07/21 02:35:21;;;;;;;3.75;2.20;;;17.90;99.90;;;;;;5075074;28;20163;-92
2021/07/21 02:37:48;;;;;;;7.57;2.15;;;17.90;99.90;;;;;;5058195;28;20312;-92
2021/07/21 02:40:14;;;;;;;3.00;2.05;;;17.80;99.90;;;;;;5040734;28;20178;-92
2021/07/21 02:42:40;;;;;;;5.50;3.38;;;17.70;99.90;;;;;;5057647;28;20270;-91
2021/07/21 02:45:06;;;;;;;6.15;3.03;;;17.70;99.90;;;;;;5057356;28;20209;-92
2021/07/21 02:47:32;;;;;;;5.25;3.47;;;17.70;99.90;;;;;;5075317;28;20510;-92
2021/07/21 02:49:58;;;;;;;4.15;2.33;;;17.60;99.90;;;;;;5041287;28;20202;-92
2021/07/21 02:52:31;;;;;;;4.97;3.30;;;17.60;99.90;;;;;;5057026;28;20730;-93
2021/07/21 02:55:24;;;;;;;8.05;2.72;;;17.60;99.90;;;;;;5075080;28;20163;-92
2021/07/21 02:57:55;;;;;;;8.20;2.50;;;17.60;99.90;;;;;;5075343;28;20179;-93
2021/07/21 03:00:25;;;;;;;3.30;2.33;;;17.70;99.90;;;;;;5074991;28;20163;-93
2021/07/21 03:02:52;;;;;;;2.55;2.10;;;17.60;99.90;;;;;;5041379;28;20183;-91
2021/07/21 03:05:20;;;;;;;6.75;3.22;;;17.60;99.90;;;;;;5074536;28;20182;-92
2021/07/21 03:07:50;;;;;;;4.53;2.35;;;17.60;99.90;;;;;;5075326;28;20175;-93
2021/07/21 03:10:17;;;;;;;7.30;4.10;;;17.60;99.90;;;;;;5075016;28;20174;-92
2021/07/21 03:12:47;;;;;;;3.80;2.65;;;17.60;99.90;;;;;;5057161;28;20179;-90
2021/07/21 03:15:14;;;;;;;8.82;2.40;;;17.50;99.90;;;;;;5056583;28;20179;-90
2021/07/21 03:17:44;;;;;;;5.40;2.28;;;17.50;99.90;;;;;;5056776;28;20270;-91
2021/07/21 03:20:10;;;;;;;5.70;2.78;;;17.50;99.90;;;;;;5074269;28;20221;-89
2021/07/21 03:22:38;;;;;;;6.10;2.30;;;17.50;99.90;;;;;;5075409;28;20194;-92
2021/07/21 03:25:06;;;;;;;5.13;2.35;;;17.60;99.90;;;;;;5074362;28;20654;-90
2021/07/21 03:27:35;;;;;;;8.00;2.53;;;17.60;99.90;;;;;;5056008;28;20175;-89
2021/07/21 03:30:01;;;;;;;3.22;2.67;;;17.50;99.90;;;;;;5074125;28;20167;-89
2021/07/21 03:32:27;;;;;;;3.90;2.00;;;17.60;99.90;;;;;;5055999;28;20879;-90
2021/07/21 03:34:55;;;;;;;8.27;4.70;;;17.60;99.90;;;;;;5056307;28;20186;-89
2021/07/21 03:37:21;;;;;;;2.17;1.90;;;17.50;99.90;;;;;;5073971;28;20261;-90
2021/07/21 03:39:54;;;;;;;7.50;3.00;;;17.60;99.90;;;;;;5074099;28;20258;-92
2021/07/21 03:42:22;;;;;;;4.10;2.22;;;17.60;99.90;;;;;;5055844;28;20252;-92
2021/07/21 03:44:48;;;;;;;3.03;2.03;;;17.70;99.90;;;;;;5074110;28;20214;-92
2021/07/21 03:47:16;;;;;;;2.85;2.15;;;17.70;99.90;;;;;;5056309;28;20167;-92
2021/07/21 03:49:42;;;;;;;2.38;2.10;;;17.70;99.90;;;;;;5039221;28;20636;-91
2021/07/21 03:52:10;;;;;;;7.88;3.05;;;17.70;99.90;;;;;;5039185;28;20227;-91
2021/07/21 03:54:36;;;;;;;6.80;2.70;;;17.80;99.90;;;;;;5055406;28;20178;-92
2021/07/21 03:57:04;;;;;;;3.13;2.40;;;17.80;99.90;;;;;;5073793;28;20187;-92
2021/07/21 03:59:30;;;;;;;6.43;2.30;;;17.80;99.90;;;;;;5073383;28;20171;-91
2021/07/21 04:01:56;;;;;;;6.00;2.78;;;17.80;99.90;;;;;;5055930;28;20206;-92
2021/07/21 04:04:23;;;;;;;3.97;2.22;;;17.70;99.90;;;;;;5073237;28;20175;-92
2021/07/21 04:06:51;;;;;;;4.53;2.47;;;17.80;99.90;;;;;;5073334;28;20258;-92
2021/07/21 04:09:21;;;;;;;3.85;1.98;;;17.80;99.90;;;;;;5055938;28;20262;-92
2021/07/21 04:11:50;;;;;;;4.55;2.72;;;17.80;99.90;;;;;;5056111;28;20202;-92
2021/07/21 04:14:18;;;;;;;8.50;3.22;;;17.90;99.90;;;;;;5073232;28;20175;-92
2021/07/21 04:16:45;;;;;;;6.80;2.85;;;17.90;99.90;;;;;;5038512;28;20184;-91
2021/07/21 04:19:13;;;;;;;6.43;2.40;;;18.00;99.90;;;;;;5055471;28;20178;-91
2021/07/21 04:21:44;;;;;;;4.10;2.13;;;18.10;99.90;;;;;;5055162;28;20206;-91
2021/07/21 04:24:11;;;;;;;4.95;2.22;;;18.10;99.90;;;;;;5073788;28;20174;-92
2021/07/21 04:26:40;;;;;;;2.45;1.92;;;18.20;99.90;;;;;;5055155;28;20183;-93
2021/07/21 04:29:10;;;;;;;4.97;2.75;;;18.30;99.90;;;;;;5073779;28;20182;-93
2021/07/21 04:31:37;;;;;;;5.00;2.58;;;18.40;99.90;;;;;;5073091;28;20168;-92
2021/07/21 04:34:05;;;;;;;6.32;2.55;;;18.40;99.90;;;;;;5072806;28;20203;-93
2021/07/21 04:36:33;;;;;;;7.10;2.22;;;18.50;99.90;;;;;;5055644;28;20176;-93
2021/07/21 04:38:59;;;;;;;6.32;3.05;;;18.50;99.90;;;;;;5038900;28;20194;-92
2021/07/21 04:41:25;;;;;;;5.82;2.15;;;18.60;99.90;;;;;;5055322;28;20199;-92
2021/07/21 04:43:51;;;;;;;3.67;2.25;;;18.60;99.90;;;;;;5056481;28;20179;-93
2021/07/21 04:46:18;;;;;;;5.05;1.90;;;18.70;99.90;;;;;;5058327;28;20191;-91
2021/07/21 04:48:44;;;;;;;13.18;2.13;;;18.80;99.90;;;;;;5054793;28;20436;-90
2021/07/21 04:51:12;;;;;;;4.18;1.98;;;18.80;99.90;;;;;;5055338;28;20620;-91
2021/07/21 04:53:37;;;;;;;2.92;1.95;;;18.90;99.90;;;;;;5072827;28;20242;-91
2021/07/21 04:56:04;;;;;;;3.65;2.00;;;19.00;99.90;;;;;;5055223;28;20278;-91
2021/07/21 04:58:30;;;;;;;4.40;2.17;;;19.10;99.90;;;;;;5056465;28;20194;-92
2021/07/21 05:00:56;;;;;;;4.43;1.67;;;19.20;99.90;;;;;;5055273;28;20647;-92
2021/07/21 05:03:22;;;;;;;4.07;1.80;;;19.30;99.90;;;;;;5022033;28;20551;-92
2021/07/21 05:05:48;;;;;;;4.63;1.85;;;19.40;99.90;;;;;;5052643;28;20179;-92
2021/07/21 05:08:14;;;;;;;6.07;1.73;;;19.40;99.90;;;;;;5038621;28;20178;-92
2021/07/21 05:10:41;;;;;;;2.08;1.65;;;19.50;99.90;;;;;;5051458;28;20609;-91
2021/07/21 05:13:07;;;;;;;5.63;1.50;;;19.60;99.90;;;;;;5072869;28;20171;-92
2021/07/21 05:15:33;;;;;;;5.63;1.63;;;19.70;99.90;;;;;;5054352;28;20262;-91
2021/07/21 05:17:58;;;;;;;3.72;2.13;;;19.80;99.90;;;;;;5054566;28;20187;-91
2021/07/21 05:20:24;;;;;;;4.15;1.60;;;19.90;99.90;;;;;;5072528;28;20186;-92
2021/07/21 05:22:50;;;;;;;6.57;1.88;;;19.90;99.90;;;;;;5075350;28;20183;-92
2021/07/21 05:25:17;;;;;;;2.90;1.92;;;19.80;99.90;;;;;;5057611;28;20270;-91
2021/07/21 05:27:44;;;;;;;5.25;2.67;;;19.60;99.90;;;;;;5038421;28;20625;-92
2021/07/21 05:30:10;;;;;;;11.88;4.55;;;19.60;99.90;;;;;;5038273;28;20698;-93
2021/07/21 05:32:36;;;;;;;4.40;2.72;;;19.50;99.90;;;;;;5055639;28;20187;-93
2021/07/21 05:35:03;;;;;;;3.30;1.85;;;19.40;99.90;;;;;;5037698;28;20177;-92
2021/07/21 05:37:29;;;;;;;6.80;4.68;;;19.40;99.90;;;;;;5055970;28;20191;-92
2021/07/21 05:39:55;;;;;;;4.43;2.03;;;19.40;99.90;;;;;;5021460;28;20234;-92
2021/07/21 05:42:20;;;;;;;2.65;2.08;;;19.40;99.90;;;;;;5055570;28;20639;-92
2021/07/21 05:44:46;;;;;;;5.78;2.40;;;19.40;99.90;;;;;;5013497;28;20176;-92
2021/07/21 05:47:12;;;;;;;5.53;2.92;;;19.30;99.90;;;;;;5051955;28;20191;-93
2021/07/21 05:49:37;;;;;;;5.60;3.22;;;19.30;99.90;;;;;;5040608;28;20258;-93
2021/07/21 05:52:03;;;;;;;8.77;3.72;;;19.40;99.90;;;;;;5040837;28;20234;-91
2021/07/21 05:54:29;;;;;;;3.15;2.42;;;19.40;99.90;;;;;;5041032;28;20175;-94
2021/07/21 05:56:57;;;;;;;5.47;2.53;;;19.50;99.90;;;;;;5040746;28;20187;-90
2021/07/21 05:59:23;;;;;;;5.15;2.28;;;19.60;99.90;;;;;;5040693;28;20206;-90
2021/07/21 06:01:48;;;;;;;6.88;2.25;;;19.70;99.90;;;;;;5057086;28;20748;-91
2021/07/21 06:04:14;;;;;;;6.30;2.25;;;19.70;99.90;;;;;;5040450;28;20205;-91
2021/07/21 06:06:39;;;;;;;9.57;2.60;;;19.70;99.90;;;;;;5056946;28;20623;-91
2021/07/21 06:09:05;;;;;;;5.78;1.83;;;19.80;99.90;;;;;;5057524;28;20179;-92
2021/07/21 06:11:31;;;;;;;2.55;2.00;;;19.90;99.90;;;;;;5057632;28;20195;-91
2021/07/21 06:14:00;;;;;;;2.83;1.80;;;19.90;99.90;;;;;;5064190;28;20587;-91
2021/07/21 06:16:26;;;;;;;2.60;1.83;;;19.90;99.90;;;;;;5048765;28;20640;-93
2021/07/21 06:18:52;;;;;;;3.25;2.17;;;19.90;99.90;;;;;;5046029;28;20203;-94
2021/07/21 06:21:19;;;;;;;8.70;2.10;;;19.90;99.90;;;;;;5046475;28;20198;-94
2021/07/21 06:23:45;;;;;;;3.97;2.47;;;20.10;99.90;;;;;;5028044;28;20187;-93
2021/07/21 06:26:11;;;;;;;5.20;2.30;;;20.30;99.90;;;;;;5028706;28;20183;-91
2021/07/21 06:28:37;;;;;;;6.30;1.60;;;20.40;99.90;;;;;;5029321;28;20183;-92
2021/07/21 06:39:36;;;;;;;4.65;1.75;;;20.70;99.90;;;;;;5138536;23;20298;-91
2021/07/21 06:42:01;;;;;;;4.40;1.98;;;20.80;99.90;;;;;;5045155;28;20743;-89
2021/07/21 06:44:27;;;;;;;4.75;1.98;;;21.00;99.90;;;;;;5074307;22;20251;-94
2021/07/21 06:46:53;;;;;;;7.15;2.00;;;21.10;99.90;;;;;;5035894;28;20541;-95
2021/07/21 06:49:19;;;;;;;6.30;1.80;;;21.20;99.90;;;;;;5034646;28;20624;-91
2021/07/21 06:51:45;;;;;;;7.32;1.88;;;21.20;99.90;;;;;;5035360;28;20242;-91
2021/07/21 06:54:10;;;;;;;5.20;1.83;;;21.30;99.90;;;;;;5033700;28;20676;-92
2021/07/21 06:56:36;;;;;;;7.32;1.58;;;21.40;99.90;;;;;;5017181;28;20625;-92
2021/07/21 06:59:02;;;;;;;4.00;1.63;;;21.50;99.90;;;;;;5017680;28;20594;-93
2021/07/21 07:01:27;;;;;;;3.80;1.77;;;21.60;99.90;;;;;;5033467;28;20628;-92
2021/07/21 07:03:53;;;;;;;3.90;1.65;;;21.60;99.90;;;;;;5034910;28;20234;-93
2021/07/21 07:06:19;;;;;;;5.80;1.85;;;21.60;99.90;;;;;;5035289;28;20211;-95
2021/07/21 07:08:44;;;;;;;8.55;1.60;;;21.70;99.90;;;;;;5036536;28;20206;-96
2021/07/21 07:11:10;;;;;;;4.82;1.85;;;21.70;99.90;;;;;;5020150;28;20271;-96
2021/07/21 07:13:37;;;;;;;3.60;1.80;;;21.80;99.90;;;;;;5036795;28;20208;-96
2021/07/21 07:16:04;;;;;;;2.42;1.42;;;21.70;99.90;;;;;;5035930;28;20168;-94
2021/07/21 07:18:30;;;;;;;2.78;2.15;;;21.80;99.90;;;;;;5036702;28;20198;-94
2021/07/21 07:20:56;;;;;;;2.95;1.65;;;21.90;99.90;;;;;;5035453;28;20275;-96
2021/07/21 07:23:22;;;;;;;7.70;1.50;;;22.00;99.90;;;;;;5039412;28;20188;-96
2021/07/21 07:25:48;;;;;;;1.90;1.13;;;22.10;99.90;;;;;;5036626;28;20176;-96
2021/07/21 07:28:14;;;;;;;3.42;1.50;;;22.20;99.90;;;;;;5036537;28;20238;-96
2021/07/21 07:30:40;;;;;;;3.97;1.40;;;22.40;99.90;;;;;;5041086;28;20184;-96
2021/07/21 07:33:06;;;;;;;3.40;1.40;;;22.40;99.90;;;;;;5036266;28;20180;-96
2021/07/21 07:35:31;;;;;;;5.53;1.80;;;22.40;99.90;;;;;;5018235;28;20183;-93
2021/07/21 07:37:58;;;;;;;4.35;1.40;;;22.40;99.90;;;;;;5037602;28;20176;-96
2021/07/21 07:40:24;;;;;;;3.70;1.50;;;22.40;99.90;;;;;;5037192;28;20176;-96
2021/07/21 07:42:49;;;;;;;4.00;1.40;;;22.50;99.90;;;;;;5020534;28;20271;-96
2021/07/21 07:45:15;;;;;;;2.97;1.08;;;22.50;99.90;;;;;;5023608;28;20263;-96
2021/07/21 07:47:44;;;;;;;5.03;1.52;;;22.60;99.90;;;;;;5021945;28;20208;-93
2021/07/21 07:50:12;;;;;;;2.55;1.55;;;22.70;99.90;;;;;;5020256;28;20239;-95
2021/07/21 07:52:39;;;;;;;2.75;1.25;;;22.90;99.90;;;;;;5036040;28;20664;-95
2021/07/21 07:55:06;;;;;;;2.58;1.42;;;22.90;99.90;;;;;;5038611;28;20271;-96
2021/07/21 07:57:32;;;;;;;8.18;1.85;;;22.70;99.90;;;;;;5035863;28;20172;-95
2021/07/21 07:59:58;;;;;;;2.20;1.70;;;22.80;99.90;;;;;;5041571;28;20188;-96
2021/07/21 08:02:24;;;;;;;3.58;1.27;;;22.90;99.90;;;;;;5046755;28;20227;-96
2021/07/21 08:04:49;;;;;;;2.33;1.42;;;22.90;99.90;;;;;;5042749;28;20180;-95
2021/07/21 08:07:15;;;;;;;5.82;1.58;;;23.00;99.90;;;;;;5036605;28;20176;-94
2021/07/21 08:09:41;;;;;;;2.80;1.48;;;23.00;99.90;;;;;;5022628;28;20176;-95
2021/07/21 08:12:07;;;;;;;6.18;1.63;;;23.10;99.90;;;;;;5016729;28;20191;-94
2021/07/21 08:14:33;;;;;;;5.00;1.83;;;23.10;99.90;;;;;;5016362;28;20176;-93
2021/07/21 08:16:59;;;;;;;5.75;1.60;;;23.30;99.90;;;;;;5032403;28;20184;-93
2021/07/21 08:19:25;;;;;;;9.07;1.50;;;23.40;99.90;;;;;;5033029;28;20176;-93
2021/07/21 08:21:52;;;;;;;8.00;1.60;;;23.40;99.90;;;;;;5033223;28;20235;-93
2021/07/21 08:24:18;;;;;;;2.42;1.73;;;23.50;99.90;;;;;;5016196;28;20180;-94
2021/07/21 08:26:45;;;;;;;3.13;1.98;;;23.50;99.90;;;;;;5033393;28;20181;-94
2021/07/21 08:29:11;;;;;;;7.97;1.70;;;23.50;99.90;;;;;;5016244;28;20521;-96
2021/07/21 08:31:37;;;;;;;4.25;2.10;;;23.50;99.90;;;;;;5034464;28;20180;-95
2021/07/21 08:34:05;;;;;;;2.58;1.60;;;23.60;99.90;;;;;;5032362;28;20180;-95
2021/07/21 08:36:33;;;;;;;3.58;1.63;;;23.70;99.90;;;;;;5033056;28;20287;-94
2021/07/21 08:38:59;;;;;;;5.30;1.85;;;23.90;99.90;;;;;;5033374;28;20180;-95
2021/07/21 08:41:27;;;;;;;3.92;1.33;;;23.90;99.50;;;;;;5038979;28;20212;-96
2021/07/21 08:43:54;;;;;;;6.40;2.40;;;23.70;98.90;;;;;;5039497;28;20231;-94
2021/07/21 08:46:21;;;;;;;5.82;1.90;;;23.50;99.30;;;;;;5053140;28;20176;-94
2021/07/21 08:48:53;;;;;;;5.97;1.80;;;23.60;99.20;;;;;;5051876;28;20214;-94
2021/07/21 08:51:24;;;;;;;4.28;1.25;;;23.50;99.20;;;;;;5053781;28;20175;-94
2021/07/21 08:53:51;;;;;;;3.20;1.63;;;23.60;98.80;;;;;;5053327;28;20187;-96
2021/07/21 08:56:18;;;;;;;3.50;1.20;;;23.80;99.30;;;;;;5053581;28;20176;-93
2021/07/21 08:58:48;;;;;;;5.50;1.42;;;24.00;98.40;;;;;;5055416;28;20207;-92
2021/07/21 09:01:17;;;;;;;7.53;1.88;;;24.20;98.00;;;;;;5055413;28;20210;-95
2021/07/21 09:03:43;;;;;;;5.70;1.70;;;24.40;97.60;;;;;;5057287;28;20176;-93
2021/07/21 09:06:11;;;;;;;5.97;2.30;;;24.50;97.50;;;;;;5039442;28;20180;-94
2021/07/21 09:08:37;;;;;;;3.60;2.20;;;24.60;97.70;;;;;;5056372;28;20186;-95
2021/07/21 09:11:03;;;;;;;2.60;1.83;;;24.30;97.30;;;;;;5057648;28;20168;-94
2021/07/21 09:13:30;;;;;;;4.90;1.88;;;24.00;96.90;;;;;;5057096;28;20172;-95
2021/07/21 09:15:55;;;;;;;6.65;1.80;;;23.80;97.40;;;;;;5056625;28;20244;-95
2021/07/21 09:18:23;;;;;;;4.00;1.70;;;23.70;97.10;;;;;;5056585;28;20184;-94
2021/07/21 09:20:59;;;;;;;4.50;1.90;;;23.40;97.10;;;;;;5056911;28;20195;-94
2021/07/21 09:23:37;;;;;;;7.43;1.80;;;23.30;97.30;;;;;;5055979;28;20183;-94
2021/07/21 09:26:03;;;;;;;6.70;3.47;;;23.30;97.80;;;;;;5057061;28;20171;-95
2021/07/21 09:28:37;;;;;;;9.52;2.25;;;23.40;97.60;;;;;;5038891;28;20194;-93
2021/07/21 09:31:03;;;;;;;3.30;1.65;;;23.60;97.80;;;;;;5056400;28;20184;-94
2021/07/21 09:33:30;;;;;;;3.95;1.75;;;23.50;97.70;;;;;;5056338;28;20208;-93
2021/07/21 09:35:56;;;;;;;16.05;2.28;;;23.40;98.20;;;;;;5055440;28;20639;-94
2021/07/21 09:38:25;;;;;;;3.97;1.60;;;23.30;98.50;;;;;;5055253;28;20202;-94
2021/07/21 09:41:04;;;;;;;2.58;1.75;;;23.30;98.30;;;;;;5055000;28;20204;-94
2021/07/21 09:43:34;;;;;;;10.48;2.03;;;23.50;98.20;;;;;;5056813;28;20239;-94
2021/07/21 09:46:09;;;;;;;5.13;2.10;;;23.70;97.30;;;;;;5056163;28;20175;-93
2021/07/21 09:48:37;;;;;;;11.82;1.92;;;23.90;96.80;;;;;;5056461;28;20176;-93
2021/07/21 09:51:03;;;;;;;7.40;1.95;;;24.20;96.80;;;;;;5038314;28;20186;-94
2021/07/21 09:53:37;;;;;;;3.42;1.60;;;24.40;97.00;;;;;;5056128;28;20184;-93
2021/07/21 09:56:03;;;;;;;2.33;1.30;;;24.60;96.10;;;;;;5054510;28;20180;-93
2021/07/21 09:58:34;;;;;;;4.63;2.08;;;24.90;95.60;;;;;;5056062;28;20176;-93
2021/07/21 10:01:01;;;;;;;6.05;1.67;;;25.00;94.20;;;;;;5055526;28;20212;-93
2021/07/21 10:03:29;;;;;;;3.22;1.58;;;25.00;94.30;;;;;;5054548;28;20195;-92
2021/07/21 10:06:10;;;;;;;1.95;1.60;;;25.20;93.90;;;;;;5054121;28;20179;-93
2021/07/21 10:08:41;;;;;;;2.35;1.70;;;25.30;93.80;;;;;;5055456;28;20176;-94
2021/07/21 10:11:26;;;;;;;6.05;1.80;;;25.20;93.30;;;;;;5055504;28;20631;-93
2021/07/21 10:14:13;;;;;;;5.75;1.50;;;24.90;93.80;;;;;;5054418;28;20253;-91
2021/07/21 10:16:44;;;;;;;6.18;1.90;;;24.70;93.40;;;;;;5052463;28;20184;-93
2021/07/21 10:19:22;;;;;;;6.40;2.30;;;24.60;93.20;;;;;;5045895;28;20180;-91
2021/07/21 10:21:51;;;;;;;4.93;1.90;;;24.40;93.60;;;;;;5043758;28;20686;-92
2021/07/21 10:24:18;;;;;;;2.90;1.80;;;24.30;94.30;;;;;;5043969;28;20173;-94
2021/07/21 10:26:46;;;;;;;6.55;1.70;;;24.30;94.90;;;;;;5044583;28;20184;-92
2021/07/21 10:29:12;;;;;;;3.90;2.10;;;24.30;94.50;;;;;;5045500;28;20173;-93
2021/07/21 10:31:39;;;;;;;4.43;1.60;;;24.50;95.00;;;;;;5028515;28;20184;-93
2021/07/21 10:34:06;;;;;;;6.63;2.10;;;24.80;94.30;;;;;;5044246;28;20251;-93
2021/07/21 10:36:32;;;;;;;4.03;1.75;;;25.00;93.70;;;;;;5044569;28;20171;-94
2021/07/21 10:39:07;;;;;;;3.95;2.40;;;24.80;93.60;;;;;;5045439;28;20184;-92
2021/07/21 10:41:33;;;;;;;4.80;2.30;;;24.70;94.70;;;;;;5045119;28;20208;-93
2021/07/21 10:43:59;;;;;;;4.18;1.85;;;25.00;95.10;;;;;;5042538;28;20327;-93
2021/07/21 10:46:32;;;;;;;6.18;2.30;;;25.10;93.60;;;;;;5011669;28;20206;-94
2021/07/21 10:49:45;;;;;;;5.05;1.95;;;24.90;93.00;;;;;;5045595;28;20184;-93
2021/07/21 11:00:04;;;;;;;3.88;1.90;;;24.40;94.60;;;;;;5045228;28;20246;-93
2021/07/21 11:02:31;;;;;;;3.50;2.20;;;24.50;94.10;;;;;;5044818;28;20249;-93
2021/07/21 11:04:57;;;;;;;2.97;2.33;;;24.50;93.70;;;;;;5044451;28;20649;-95
2021/07/21 11:07:49;;;;;;;2.75;1.92;;;24.60;93.50;;;;;;5027966;28;20257;-92
2021/07/21 11:10:15;;;;;;;5.13;2.13;;;24.50;93.20;;;;;;5046195;28;20175;-94
2021/07/21 11:12:49;;;;;;;5.90;2.17;;;24.50;93.00;;;;;;5041422;28;20187;-93
2021/07/21 11:15:47;;;;;;;6.30;2.25;;;24.50;93.70;;;;;;5045189;28;20185;-92
2021/07/21 11:18:24;;;;;;;5.55;2.47;;;24.40;94.30;;;;;;5032886;28;20192;-92
2021/07/21 11:21:02;;;;;;;8.50;2.35;;;24.30;95.00;;;;;;5030052;28;20215;-92
2021/07/21 11:23:52;;;;;;;10.52;1.80;;;24.20;95.20;;;;;;5037796;28;20219;-93
2021/07/21 11:26:38;;;;;;;2.97;2.10;;;24.10;95.30;;;;;;5043168;28;20168;-91
2021/07/21 11:29:23;;;;;;;14.95;2.88;;;23.80;95.60;;;;;;5042059;28;20624;-92
2021/07/21 11:31:48;;;;;;;10.00;2.22;;;23.70;96.40;;;;;;5043697;28;20216;-90
2021/07/21 11:34:15;;;;;;;3.90;2.33;;;22.50;96.00;;;;;;5036918;28;20184;-91
2021/07/21 11:36:46;;;;;;;9.43;2.60;;;23.40;96.80;;;;;;5047001;28;20575;-92
2021/07/21 11:39:35;;;;;;;5.72;2.30;;;22.70;96.70;;;;;;5052910;28;20631;-89
2021/07/21 11:42:03;;;;;;;8.68;2.03;;;22.90;97.00;;;;;;5033903;28;20234;-95
2021/07/21 11:44:32;;;;;;;10.95;2.90;;;22.80;96.80;;;;;;5038840;28;20231;-92
2021/07/21 11:47:00;;;;;;;16.23;2.72;;;22.80;96.80;;;;;;5048059;28;20267;-91
2021/07/21 11:49:28;;;;;;;5.25;2.53;;;22.70;96.00;;;;;;5044852;28;20180;-93
2021/07/21 11:52:05;;;;;;;11.88;3.25;;;22.80;95.70;;;;;;5043054;28;20180;-93
2021/07/21 11:54:37;;;;;;;5.72;2.63;;;22.90;96.40;;;;;;5031977;28;20284;-91
2021/07/21 11:57:08;;;;;;;9.27;2.78;;;22.90;96.00;;;;;;5034056;28;20192;-95
2021/07/21 11:59:38;;;;;;;6.47;2.22;;;23.10;96.30;;;;;;5032260;28;20187;-94
2021/07/21 12:02:20;;;;;;;4.43;3.00;;;23.30;97.10;;;;;;5015633;28;20266;-95
2021/07/21 12:04:51;;;;;;;4.57;2.40;;;23.20;97.10;;;;;;5035613;28;20176;-95
2021/07/21 12:07:19;;;;;;;3.78;2.75;;;23.40;98.10;;;;;;5032765;28;20251;-92
2021/07/21 12:09:54;;;;;;;5.15;2.55;;;23.50;97.90;;;;;;5032000;28;20181;-94
2021/07/21 12:12:22;;;;;;;3.90;2.33;;;23.70;97.60;;;;;;5046394;28;20239;-93
2021/07/21 12:14:50;;;;;;;6.38;2.90;;;24.00;97.00;;;;;;5038787;28;20184;-95
2021/07/21 12:17:17;;;;;;;8.75;3.00;;;24.20;96.60;;;;;;5033176;28;20182;-94
2021/07/21 12:19:53;;;;;;;6.68;2.55;;;24.40;93.90;;;;;;5032408;28;20176;-90
2021/07/21 12:22:20;;;;;;;3.88;2.45;;;24.70;93.20;;;;;;5032372;28;20323;-93
2021/07/21 12:24:53;;;;;;;6.38;2.63;;;24.50;93.10;;;;;;5033419;28;20176;-92
2021/07/21 12:27:35;;;;;;;10.35;3.10;;;24.70;93.30;;;;;;5033464;28;20176;-91
2021/07/21 12:30:06;;;;;;;7.47;2.78;;;22.10;91.40;;;;;;5031817;28;20176;-93
2021/07/21 12:32:32;;;;;;;6.78;2.90;;;24.50;92.40;;;;;;5032287;28;20176;-93
2021/07/21 12:34:58;;;;;;;11.20;3.05;;;24.60;92.90;;;;;;5031199;28;20176;-94
2021/07/21 12:37:26;;;;;;;5.65;2.35;;;24.20;94.10;;;;;;5033448;28;20217;-96
2021/07/21 12:39:53;;;;;;;3.78;2.55;;;24.20;92.70;;;;;;5042994;28;20177;-94
2021/07/21 12:42:23;;;;;;;8.85;2.70;;;24.40;92.70;;;;;;5040219;28;20219;-93
2021/07/21 12:44:54;;;;;;;4.40;2.75;;;24.40;93.60;;;;;;5041444;28;20223;-92
2021/07/21 12:47:31;;;;;;;6.78;2.70;;;24.50;94.10;;;;;;5042220;28;20199;-93
2021/07/21 12:50:08;;;;;;;6.25;2.83;;;24.40;93.60;;;;;;5043457;28;20698;-92
2021/07/21 12:52:44;;;;;;;5.68;2.33;;;24.10;93.80;;;;;;5040678;28;20173;-92
2021/07/21 12:55:16;;;;;;;4.65;2.60;;;24.00;94.10;;;;;;5036840;28;20687;-93
2021/07/21 12:57:46;;;;;;;7.15;2.92;;;24.20;94.10;;;;;;5052344;28;20221;-93
2021/07/21 13:00:12;;;;;;;11.50;2.95;;;24.40;94.00;;;;;;5048442;28;20176;-94
2021/07/21 13:02:38;;;;;;;8.05;2.50;;;24.50;93.80;;;;;;5050297;28;20247;-90
2021/07/21 13:05:34;;;;;;;6.30;2.58;;;24.90;93.60;;;;;;5053656;28;20562;-92
2021/07/21 13:08:21;;;;;;;7.32;2.80;;;25.10;93.10;;;;;;5051210;28;20183;-92
2021/07/21 13:10:48;;;;;;;4.55;2.65;;;25.00;92.60;;;;;;5043756;28;20173;-94
2021/07/21 13:13:33;;;;;;;5.25;2.92;;;24.80;92.80;;;;;;5051493;28;20172;-96